createdAt,value
2024-04-21T00:01:42.864Z,101828.66
2024-04-21T00:04:10.976Z,101832.22
2024-04-21T00:06:38.373Z,101838.31
2024-04-21T00:09:05.558Z,101844.69
2024-04-21T00:11:32.745Z,101832.06
2024-04-21T00:13:59.917Z,101838.22
2024-04-21T00:16:27.235Z,101822.66
2024-04-21T00:18:54.554Z,101839.25
2024-04-21T00:21:21.849Z,101835.56
2024-04-21T00:23:49.063Z,101828.72
2024-04-21T00:26:16.266Z,101832.41
2024-04-21T00:28:47.405Z,101834.03
2024-04-21T00:31:14.772Z,101814.88
2024-04-21T00:33:42.185Z,101841.84
2024-04-21T00:36:09.405Z,101847.50
2024-04-21T00:38:36.664Z,101841.00
2024-04-21T00:41:03.948Z,101843.81
2024-04-21T00:43:31.432Z,101848.56
2024-04-21T00:45:59.096Z,101843.09
2024-04-21T00:48:26.988Z,101843.00
2024-04-21T00:50:56.495Z,101849.50
2024-04-21T00:53:24.785Z,101846.66
2024-04-21T00:55:52.819Z,101854.22
2024-04-21T00:58:20.791Z,101860.22
2024-04-21T01:00:48.598Z,101857.88
2024-04-21T01:03:16.232Z,101856.53
2024-04-21T01:05:43.524Z,101864.53
2024-04-21T01:08:10.902Z,101863.88
2024-04-21T01:10:38.074Z,101869.66
2024-04-21T01:13:12.830Z,101869.66
2024-04-21T01:15:41.702Z,73387.22
2024-04-21T01:18:09.828Z,73387.22
2024-04-21T01:20:38.153Z,101865.00
2024-04-21T01:23:05.739Z,101869.22
2024-04-21T01:25:33.412Z,101880.31
2024-04-21T01:28:00.712Z,101887.94
2024-04-21T01:30:28.215Z,101886.59
2024-04-21T01:32:55.599Z,101885.47
2024-04-21T01:35:22.999Z,101878.50
2024-04-21T01:37:50.277Z,101889.56
2024-04-21T01:40:18.330Z,101889.16
2024-04-21T01:42:45.773Z,101888.34
2024-04-21T01:45:12.975Z,101890.84
2024-04-21T01:47:40.257Z,101876.81
2024-04-21T01:50:11.667Z,101888.31
2024-04-21T01:52:39.715Z,101887.94
2024-04-21T01:55:07.277Z,101892.25
2024-04-21T01:57:34.525Z,101891.41
2024-04-21T02:00:01.695Z,101905.56
2024-04-21T02:02:28.870Z,101903.75
2024-04-21T02:04:56.122Z,101895.81
2024-04-21T02:07:23.383Z,101904.00
2024-04-21T02:09:50.723Z,101893.63
2024-04-21T02:12:17.867Z,101906.19
2024-04-21T02:14:45.166Z,101917.44
2024-04-21T02:17:12.482Z,101906.78
2024-04-21T02:19:39.721Z,101921.28
2024-04-21T02:22:07.078Z,101913.94
2024-04-21T02:24:45.122Z,101914.09
2024-04-21T02:27:12.386Z,101921.34
2024-04-21T02:29:39.634Z,101925.84
2024-04-21T02:32:07.353Z,101928.09
2024-04-21T02:34:34.659Z,101926.44
2024-04-21T02:37:01.879Z,101927.69
2024-04-21T02:39:29.142Z,101930.97
2024-04-21T02:41:56.281Z,101929.19
2024-04-21T02:44:23.485Z,101931.47
2024-04-21T02:46:50.681Z,101933.97
2024-04-21T02:49:18.067Z,101929.06
2024-04-21T02:51:45.418Z,101943.59
2024-04-21T02:54:12.634Z,101946.28
2024-04-21T02:56:39.960Z,101944.25
2024-04-21T02:59:07.141Z,101944.66
2024-04-21T03:01:34.454Z,101945.50
2024-04-21T03:04:01.743Z,101948.34
2024-04-21T03:06:28.978Z,101947.75
2024-04-21T03:08:56.160Z,101948.53
2024-04-21T03:11:23.479Z,101956.34
2024-04-21T03:13:50.662Z,101952.44
2024-04-21T03:16:18.107Z,101952.66
2024-04-21T03:18:45.390Z,101952.44
2024-04-21T03:21:12.620Z,101952.44
2024-04-21T03:23:39.790Z,101967.19
2024-04-21T03:26:06.979Z,101960.22
2024-04-21T03:28:34.143Z,101956.94
2024-04-21T03:31:02.252Z,101937.75
2024-04-21T03:33:29.715Z,101963.28
2024-04-21T03:36:11.857Z,101976.38
2024-04-21T03:38:39.690Z,101972.06
2024-04-21T03:41:08.061Z,101974.53
2024-04-21T03:43:35.554Z,101965.94
2024-04-21T03:46:02.762Z,101984.97
2024-04-21T03:48:30.008Z,101987.00
2024-04-21T03:50:57.412Z,101989.28
2024-04-21T03:53:24.940Z,101987.00
2024-04-21T03:55:52.379Z,101994.75
2024-04-21T03:58:19.705Z,101992.09
2024-04-21T04:00:47.869Z,101998.22
2024-04-21T04:03:15.871Z,101999.25
2024-04-21T04:05:47.371Z,102001.09
2024-04-21T04:08:14.971Z,102011.34
2024-04-21T04:10:43.670Z,102012.19
2024-04-21T04:13:11.796Z,102018.97
2024-04-21T04:15:40.945Z,102024.09
2024-04-21T04:18:08.601Z,102025.53
2024-04-21T04:20:38.555Z,102033.91
2024-04-21T04:23:06.272Z,102033.72
2024-04-21T04:25:33.849Z,102040.44
2024-04-21T04:28:01.238Z,102045.94
2024-04-21T04:30:28.485Z,102050.63
2024-04-21T04:32:56.098Z,102053.66
2024-04-21T04:35:23.298Z,102059.19
2024-04-21T04:37:52.907Z,102055.91
2024-04-21T04:40:21.957Z,102066.56
2024-04-21T04:42:49.805Z,102067.75
2024-04-21T04:45:18.888Z,102070.41
2024-04-21T04:47:46.223Z,102074.34
2024-04-21T04:50:16.627Z,102074.13
2024-04-21T04:52:43.938Z,102071.63
2024-04-21T04:55:11.181Z,102082.69
2024-04-21T04:57:38.377Z,102089.84
2024-04-21T05:00:09.794Z,102082.63
2024-04-21T05:02:37.026Z,102091.25
2024-04-21T05:05:04.433Z,102092.22
2024-04-21T05:07:31.668Z,102099.19
2024-04-21T05:09:58.955Z,102106.50
2024-04-21T05:12:26.128Z,102112.63
2024-04-21T05:14:53.370Z,102123.66
2024-04-21T05:17:20.624Z,102124.84
2024-04-21T05:19:47.943Z,102125.63
2024-04-21T05:22:15.300Z,102130.72
2024-04-21T05:24:42.545Z,102135.44
2024-04-21T05:27:09.717Z,102148.09
2024-04-21T05:29:36.873Z,102140.84
2024-04-21T05:32:04.276Z,102148.19
2024-04-21T05:34:31.592Z,102147.53
2024-04-21T05:36:58.853Z,102153.66
2024-04-21T05:39:26.524Z,102153.47
2024-04-21T05:41:53.992Z,102156.03
2024-04-21T05:44:21.160Z,102164.44
2024-04-21T05:46:48.427Z,102167.28
2024-04-21T05:49:15.690Z,102175.25
2024-04-21T05:51:42.896Z,102181.34
2024-04-21T05:54:10.228Z,102179.81
2024-04-21T05:56:37.408Z,102190.28
2024-04-21T05:59:04.599Z,102190.81
2024-04-21T06:01:31.844Z,102197.97
2024-04-21T06:03:59.155Z,102194.69
2024-04-21T06:06:26.562Z,102196.66
2024-04-21T06:08:53.825Z,102196.59
2024-04-21T06:11:21.342Z,102201.22
2024-04-21T06:13:48.692Z,102205.31
2024-04-21T06:16:15.865Z,102207.06
2024-04-21T06:18:46.766Z,102210.50
2024-04-21T06:21:16.333Z,102214.97
2024-04-21T06:23:43.547Z,102222.31
2024-04-21T06:26:10.794Z,102228.56
2024-04-21T06:28:38.002Z,102229.59
2024-04-21T06:31:05.289Z,102241.81
2024-04-21T06:33:32.540Z,102246.91
2024-04-21T06:36:00.290Z,102246.00
2024-04-21T06:38:31.638Z,102239.97
2024-04-21T06:40:59.062Z,102245.47
2024-04-21T06:43:26.302Z,102246.56
2024-04-21T06:45:53.596Z,102254.06
2024-04-21T06:48:23.388Z,102261.97
2024-04-21T06:50:50.932Z,102252.44
2024-04-21T06:53:19.240Z,102253.06
2024-04-21T06:55:46.568Z,102262.19
2024-04-21T06:58:13.975Z,102263.50
2024-04-21T07:00:41.911Z,102267.84
2024-04-21T07:03:09.803Z,102266.31
2024-04-21T07:05:37.287Z,102273.31
2024-04-21T07:08:04.626Z,102273.69
2024-04-21T07:10:31.905Z,102272.41
2024-04-21T07:12:59.117Z,102275.66
2024-04-21T07:15:26.398Z,102278.22
2024-04-21T07:17:53.673Z,73387.22
2024-04-21T07:20:23.092Z,73387.22
2024-04-21T07:22:50.437Z,73387.22
2024-04-21T07:25:24.573Z,102278.22
2024-04-21T07:27:53.076Z,102283.34
2024-04-21T07:30:20.375Z,102280.81
2024-04-21T07:32:47.841Z,102286.50
2024-04-21T07:35:15.586Z,102283.94
2024-04-21T07:37:42.885Z,102285.94
2024-04-21T07:40:10.569Z,102291.63
2024-04-21T07:42:38.732Z,102302.13
2024-04-21T07:45:06.325Z,102297.31
2024-04-21T07:47:33.822Z,102294.63
2024-04-21T07:50:01.351Z,102300.94
2024-04-21T07:52:28.721Z,102295.59
2024-04-21T07:54:56.067Z,102297.88
2024-04-21T07:57:23.467Z,102295.16
2024-04-21T07:59:50.722Z,102305.78
2024-04-21T08:02:17.939Z,102299.22
2024-04-21T08:04:45.177Z,102300.13
2024-04-21T08:07:12.413Z,102294.72
2024-04-21T08:09:39.680Z,102303.66
2024-04-21T08:12:07.646Z,102297.78
2024-04-21T08:14:34.894Z,102299.44
2024-04-21T08:17:02.205Z,102289.75
2024-04-21T08:19:29.553Z,102295.31
2024-04-21T08:21:57.052Z,102304.13
2024-04-21T08:24:25.694Z,102299.81
2024-04-21T08:26:55.978Z,102308.63
2024-04-21T08:29:26.444Z,102302.59
2024-04-21T08:31:55.395Z,102301.19
2024-04-21T08:34:23.944Z,102301.28
2024-04-21T08:36:51.515Z,102302.44
2024-04-21T08:39:19.907Z,102291.91
2024-04-21T08:41:48.576Z,102297.38
2024-04-21T08:44:16.440Z,102296.72
2024-04-21T08:46:44.174Z,102300.41
2024-04-21T08:49:11.906Z,102300.28
2024-04-21T08:51:40.662Z,102297.72
2024-04-21T08:54:08.150Z,102295.03
2024-04-21T08:56:36.629Z,102307.44
2024-04-21T08:59:04.402Z,102315.69
2024-04-21T09:01:31.819Z,102309.03
2024-04-21T09:03:59.159Z,102313.25
2024-04-21T09:06:27.767Z,102312.69
2024-04-21T09:08:55.925Z,102301.31
2024-04-21T09:11:25.160Z,102316.47
2024-04-21T09:13:52.426Z,102313.34
2024-04-21T09:16:19.614Z,102316.22
2024-04-21T09:18:47.027Z,102326.41
2024-04-21T09:21:14.253Z,102314.31
2024-04-21T09:23:42.535Z,102308.47
2024-04-21T09:26:10.717Z,102323.69
2024-04-21T09:28:37.939Z,102309.44
2024-04-21T09:31:05.343Z,102320.22
2024-04-21T09:33:32.722Z,102314.72
2024-04-21T09:36:00.651Z,102303.81
2024-04-21T09:38:28.112Z,102311.19
2024-04-21T09:40:58.154Z,102314.75
2024-04-21T09:43:29.025Z,102294.50
2024-04-21T09:45:57.316Z,102298.91
2024-04-21T09:48:28.960Z,102298.19
2024-04-21T09:50:56.388Z,102289.84
2024-04-21T09:53:24.705Z,102296.63
2024-04-21T09:55:56.569Z,102291.28
2024-04-21T09:58:29.384Z,102292.22
2024-04-21T10:00:58.510Z,102285.25
2024-04-21T10:03:26.289Z,102294.19
2024-04-21T10:05:55.465Z,102287.97
2024-04-21T10:08:23.718Z,102292.34
2024-04-21T10:10:52.810Z,102282.03
2024-04-21T10:13:21.736Z,102286.06
2024-04-21T10:15:49.987Z,102291.66
2024-04-21T10:18:25.884Z,102299.44
2024-04-21T10:20:54.782Z,102307.81
2024-04-21T10:23:22.035Z,102303.19
2024-04-21T10:25:51.536Z,102292.47
2024-04-21T10:28:32.332Z,102300.38
2024-04-21T10:31:06.876Z,102298.84
2024-04-21T10:33:34.818Z,102296.69
2024-04-21T10:36:01.982Z,102285.06
2024-04-21T10:38:29.200Z,102295.34
2024-04-21T10:40:58.435Z,102294.22
2024-04-21T10:43:30.195Z,102287.69
2024-04-21T10:46:01.359Z,102298.78
2024-04-21T10:48:28.651Z,102294.41
2024-04-21T10:50:57.925Z,102289.44
2024-04-21T10:53:26.282Z,102290.72
2024-04-21T10:55:55.690Z,102294.63
2024-04-21T10:58:23.409Z,102291.91
2024-04-21T11:00:51.538Z,102303.78
2024-04-21T11:03:20.201Z,102311.69
2024-04-21T11:05:56.147Z,102307.94
2024-04-21T11:08:25.022Z,102292.78
2024-04-21T11:10:52.323Z,102281.63
2024-04-21T11:13:20.125Z,102278.06
2024-04-21T11:15:47.438Z,102297.81
2024-04-21T11:18:16.576Z,102316.13
2024-04-21T11:20:44.644Z,102318.53
2024-04-21T11:23:16.386Z,102309.41
2024-04-21T11:25:47.994Z,102311.97
2024-04-21T11:28:20.346Z,102294.09
2024-04-21T11:30:48.791Z,102294.88
2024-04-21T11:33:16.564Z,102307.28
2024-04-21T11:35:44.161Z,102266.72
2024-04-21T11:38:14.005Z,102291.50
2024-04-21T11:40:41.251Z,102304.00
2024-04-21T11:43:12.402Z,102305.97
2024-04-21T11:45:43.806Z,102312.97
2024-04-21T11:48:11.663Z,102315.78
2024-04-21T11:50:39.540Z,102312.63
2024-04-21T11:53:07.290Z,102318.13
2024-04-21T11:55:36.930Z,102314.16
2024-04-21T11:58:04.512Z,102320.28
2024-04-21T12:00:31.917Z,102325.19
2024-04-21T12:02:59.304Z,102319.66
2024-04-21T12:05:26.803Z,102287.00
2024-04-21T12:07:54.293Z,102285.66
2024-04-21T12:10:21.917Z,102279.69
2024-04-21T12:12:49.342Z,102286.31
2024-04-21T12:15:17.198Z,102268.22
2024-04-21T12:17:45.065Z,102270.84
2024-04-21T12:20:12.240Z,102282.19
2024-04-21T12:22:39.580Z,102284.53
2024-04-21T12:25:07.003Z,102305.84
2024-04-21T12:27:34.280Z,102315.88
2024-04-21T12:30:01.622Z,102334.41
2024-04-21T12:32:29.874Z,102355.66
2024-04-21T12:35:00.231Z,102354.38
2024-04-21T12:37:27.515Z,102359.53
2024-04-21T12:39:54.850Z,102354.34
2024-04-21T12:42:22.310Z,102352.44
2024-04-21T12:44:49.508Z,102341.94
2024-04-21T12:47:17.905Z,102346.84
2024-04-21T12:49:45.231Z,102347.69
2024-04-21T12:52:12.527Z,102341.03
2024-04-21T12:54:39.992Z,102325.94
2024-04-21T12:57:07.347Z,102331.78
2024-04-21T12:59:34.582Z,102330.19
2024-04-21T13:02:01.930Z,102313.53
2024-04-21T13:04:29.799Z,102310.97
2024-04-21T13:06:57.153Z,102298.06
2024-04-21T13:09:24.411Z,102299.13
2024-04-21T13:11:51.987Z,102283.97
2024-04-21T13:14:19.288Z,102273.84
2024-04-21T13:16:46.500Z,102283.34
2024-04-21T13:19:13.717Z,102276.31
2024-04-21T13:21:40.935Z,102282.88
2024-04-21T13:24:08.243Z,102281.69
2024-04-21T13:26:35.674Z,102293.81
2024-04-21T13:29:02.872Z,73387.22
2024-04-21T13:31:30.285Z,73387.22
2024-04-21T13:33:59.634Z,102272.31
2024-04-21T13:36:34.760Z,73387.22
2024-04-21T13:39:07.413Z,102272.31
2024-04-21T13:41:34.978Z,73387.22
2024-04-21T13:44:04.243Z,73387.22
2024-04-21T13:46:32.022Z,73387.22
2024-04-21T13:48:59.550Z,102300.16
2024-04-21T13:51:31.873Z,102318.72
2024-04-21T13:54:02.264Z,102315.28
2024-04-21T13:56:29.954Z,102326.78
2024-04-21T13:58:57.246Z,102317.28
2024-04-21T14:01:24.870Z,102331.25
2024-04-21T14:03:52.365Z,102343.16
2024-04-21T14:06:22.014Z,102344.03
2024-04-21T14:08:50.016Z,102325.75
2024-04-21T14:11:17.503Z,102328.91
2024-04-21T14:13:44.954Z,102339.13
2024-04-21T14:16:12.409Z,102333.69
2024-04-21T14:18:39.870Z,102306.03
2024-04-21T14:21:07.228Z,102320.47
2024-04-21T14:23:34.586Z,102318.63
2024-04-21T14:26:01.835Z,102333.84
2024-04-21T14:28:31.791Z,102320.75
2024-04-21T14:31:02.371Z,102320.72
2024-04-21T14:33:29.797Z,102336.38
2024-04-21T14:35:57.311Z,102358.66
2024-04-21T14:38:24.745Z,102351.16
2024-04-21T14:40:51.926Z,102333.66
2024-04-21T14:43:20.154Z,102345.31
2024-04-21T14:45:50.477Z,102345.59
2024-04-21T14:48:20.932Z,102346.34
2024-04-21T14:51:02.020Z,102354.34
2024-04-21T14:53:29.395Z,102358.47
2024-04-21T14:56:01.498Z,102365.41
2024-04-21T14:58:28.745Z,102376.53
2024-04-21T15:00:56.130Z,102371.59
2024-04-21T15:03:25.461Z,102374.78
2024-04-21T15:05:52.714Z,102365.03
2024-04-21T15:08:20.041Z,102372.00
2024-04-21T15:10:47.296Z,102365.69
2024-04-21T15:13:14.555Z,102362.66
2024-04-21T15:15:42.807Z,102346.53
2024-04-21T15:18:10.042Z,102340.06
2024-04-21T15:20:37.314Z,102327.00
2024-04-21T15:23:04.809Z,102318.19
2024-04-21T15:25:32.719Z,102309.88
2024-04-21T15:28:00.997Z,102310.59
2024-04-21T15:30:29.661Z,102321.94
2024-04-21T15:32:56.989Z,102328.81
2024-04-21T15:35:24.395Z,102309.22
2024-04-21T15:37:51.719Z,102305.94
2024-04-21T15:40:19.895Z,102307.63
2024-04-21T15:42:47.466Z,102305.75
2024-04-21T15:45:17.615Z,102316.19
2024-04-21T15:47:48.055Z,102315.53
2024-04-21T15:50:15.281Z,102316.72
2024-04-21T15:52:43.174Z,102326.63
2024-04-21T15:55:14.196Z,102329.19
2024-04-21T15:57:41.621Z,102343.22
2024-04-21T16:00:09.354Z,102356.63
2024-04-21T16:02:37.940Z,102352.00
2024-04-21T16:05:06.905Z,102365.16
2024-04-21T16:07:34.830Z,102363.38
2024-04-21T16:10:03.265Z,102364.78
2024-04-21T16:12:30.721Z,102364.78
2024-04-21T16:14:57.897Z,102371.13
2024-04-21T16:17:25.297Z,102365.16
2024-04-21T16:19:52.736Z,102373.84
2024-04-21T16:22:20.298Z,102373.38
2024-04-21T16:24:47.894Z,102372.88
2024-04-21T16:27:15.919Z,102373.63
2024-04-21T16:29:45.326Z,102368.78
2024-04-21T16:32:12.550Z,102376.63
2024-04-21T16:34:40.182Z,102375.91
2024-04-21T16:37:09.599Z,102377.25
2024-04-21T16:39:37.164Z,102383.19
2024-04-21T16:42:04.698Z,102380.78
2024-04-21T16:44:32.374Z,102381.53
2024-04-21T16:47:00.511Z,102373.41
2024-04-21T16:49:28.534Z,102382.59
2024-04-21T16:52:02.146Z,102380.03
2024-04-21T16:54:30.133Z,102381.91
2024-04-21T16:57:10.837Z,102388.38
2024-04-21T16:59:42.996Z,102384.38
2024-04-21T17:02:10.560Z,102388.72
2024-04-21T17:04:41.621Z,102391.34
2024-04-21T17:07:18.226Z,102388.34
2024-04-21T17:09:49.178Z,102400.41
2024-04-21T17:12:22.733Z,102403.94
2024-04-21T17:14:50.158Z,102423.25
2024-04-21T17:17:21.233Z,102425.41
2024-04-21T17:19:48.546Z,102432.19
2024-04-21T17:22:15.755Z,102440.47
2024-04-21T17:24:45.001Z,102433.47
2024-04-21T17:27:14.016Z,102438.56
2024-04-21T17:29:41.489Z,102438.66
2024-04-21T17:32:08.784Z,102444.38
2024-04-21T17:34:37.080Z,102443.28
2024-04-21T17:37:04.837Z,102444.97
2024-04-21T17:39:32.206Z,102447.25
2024-04-21T17:41:59.386Z,102449.44
2024-04-21T17:44:26.753Z,102446.75
2024-04-21T17:46:54.151Z,102450.72
2024-04-21T17:49:21.567Z,102450.13
2024-04-21T17:51:48.803Z,102451.97
2024-04-21T17:54:21.972Z,102450.38
2024-04-21T17:56:50.272Z,102451.16
2024-04-21T17:59:18.118Z,102449.44
2024-04-21T18:01:45.400Z,102445.03
2024-04-21T18:04:12.845Z,102451.69
2024-04-21T18:06:41.601Z,102448.56
2024-04-21T18:09:09.347Z,102457.88
2024-04-21T18:11:39.920Z,102452.50
2024-04-21T18:14:07.957Z,102454.75
2024-04-21T18:16:35.273Z,102459.66
2024-04-21T18:19:02.643Z,102457.50
2024-04-21T18:21:29.855Z,102466.38
2024-04-21T18:23:57.083Z,102464.44
2024-04-21T18:26:24.407Z,102458.13
2024-04-21T18:28:51.586Z,102463.97
2024-04-21T18:31:18.989Z,102463.19
2024-04-21T18:33:46.441Z,102463.22
2024-04-21T18:36:13.954Z,102463.22
2024-04-21T18:38:41.257Z,102472.44
2024-04-21T18:41:08.503Z,102474.91
2024-04-21T18:43:35.825Z,102475.59
2024-04-21T18:46:04.764Z,102470.81
2024-04-21T18:48:32.081Z,102477.81
2024-04-21T18:51:02.929Z,102480.16
2024-04-21T18:53:30.102Z,102487.28
2024-04-21T18:56:04.714Z,102478.88
2024-04-21T18:58:32.668Z,102481.94
2024-04-21T19:01:07.113Z,102488.22
2024-04-21T19:03:36.298Z,102492.63
2024-04-21T19:06:09.950Z,102492.75
2024-04-21T19:08:37.497Z,102494.38
2024-04-21T19:11:06.762Z,102493.28
2024-04-21T19:13:34.355Z,102490.66
2024-04-21T19:16:06.835Z,102497.31
2024-04-21T19:18:34.742Z,102489.38
2024-04-21T19:21:02.905Z,102495.19
2024-04-21T19:23:30.457Z,102493.81
2024-04-21T19:25:58.098Z,102490.72
2024-04-21T19:28:25.489Z,102493.72
2024-04-21T19:30:52.796Z,102498.03
2024-04-21T19:33:20.478Z,102504.59
2024-04-21T19:35:49.415Z,102495.75
2024-04-21T19:38:16.853Z,102496.44
2024-04-21T19:40:47.346Z,102493.56
2024-04-21T19:43:17.369Z,102491.75
2024-04-21T19:45:44.646Z,102497.63
2024-04-21T19:48:13.079Z,102498.09
2024-04-21T19:50:41.752Z,102498.06
2024-04-21T19:53:10.696Z,102498.22
2024-04-21T19:55:37.965Z,102505.69
2024-04-21T19:58:05.521Z,102507.47
2024-04-21T20:00:32.718Z,102499.66
2024-04-21T20:03:00.098Z,102499.94
2024-04-21T20:05:29.816Z,102488.94
2024-04-21T20:07:57.026Z,102490.66
2024-04-21T20:10:25.442Z,102502.66
2024-04-21T20:12:54.908Z,102505.03
2024-04-21T20:15:42.762Z,102500.22
2024-04-21T20:18:29.214Z,102507.41
2024-04-21T20:21:03.210Z,102493.06
2024-04-21T20:23:31.252Z,102496.41
2024-04-21T20:26:00.713Z,102493.59
2024-04-21T20:28:28.054Z,102493.59
2024-04-21T20:30:55.288Z,73387.22
2024-04-21T20:33:22.722Z,73387.22
2024-04-21T20:35:50.002Z,73387.22
2024-04-21T20:38:17.168Z,73387.22
2024-04-21T20:40:44.402Z,73387.22
2024-04-21T20:43:11.615Z,73387.22
2024-04-21T20:45:38.878Z,73387.22
2024-04-21T20:48:06.612Z,102493.59
2024-04-21T20:50:35.019Z,102492.97
2024-04-21T20:53:02.544Z,102500.78
2024-04-21T20:55:30.239Z,102505.91
2024-04-21T20:57:57.544Z,102490.97
2024-04-21T21:00:24.748Z,102506.31
2024-04-21T21:02:52.014Z,102500.56
2024-04-21T21:05:19.364Z,102496.06
2024-04-21T21:07:46.616Z,102493.84
2024-04-21T21:10:13.883Z,102502.06
2024-04-21T21:12:41.836Z,102503.75
2024-04-21T21:15:09.928Z,102501.69
2024-04-21T21:17:37.772Z,102506.66
2024-04-21T21:20:06.212Z,102496.41
2024-04-21T21:22:33.468Z,102492.09
2024-04-21T21:25:00.675Z,102492.28
2024-04-21T21:27:27.961Z,102487.78
2024-04-21T21:29:55.193Z,102484.91
2024-04-21T21:32:22.581Z,102479.78
2024-04-21T21:34:50.052Z,102482.06
2024-04-21T21:37:17.313Z,102483.91
2024-04-21T21:39:51.120Z,102488.63
2024-04-21T21:42:18.344Z,102486.16
2024-04-21T21:44:45.563Z,102481.66
2024-04-21T21:47:12.821Z,102484.91
2024-04-21T21:49:40.082Z,102483.31
2024-04-21T21:52:07.437Z,102481.91
2024-04-21T21:54:36.026Z,102485.00
2024-04-21T21:57:03.630Z,102484.56
2024-04-21T21:59:30.998Z,102482.09
2024-04-21T22:01:59.978Z,102481.72
2024-04-21T22:04:27.399Z,102483.75
2024-04-21T22:06:54.606Z,102490.72
2024-04-21T22:09:21.786Z,102489.28
2024-04-21T22:11:49.292Z,102490.31
2024-04-21T22:14:16.512Z,102487.63
2024-04-21T22:16:43.759Z,102490.53
2024-04-21T22:19:11.029Z,102496.66
2024-04-21T22:21:38.286Z,102502.22
2024-04-21T22:24:05.846Z,102510.41
2024-04-21T22:26:33.156Z,102500.97
2024-04-21T22:29:00.331Z,102505.47
2024-04-21T22:31:27.528Z,102502.63
2024-04-21T22:33:54.784Z,102510.03
2024-04-21T22:36:21.915Z,102509.22
2024-04-21T22:38:49.096Z,102521.69
2024-04-21T22:41:16.250Z,102525.38
2024-04-21T22:43:43.454Z,102520.66
2024-04-21T22:46:10.687Z,102524.97
2024-04-21T22:48:38.906Z,102522.28
2024-04-21T22:51:06.748Z,102529.44
2024-04-21T22:53:33.969Z,102531.53
2024-04-21T22:56:01.277Z,102531.72
2024-04-21T22:58:28.795Z,102526.41
2024-04-21T23:00:56.043Z,102524.34
2024-04-21T23:03:23.302Z,102527.03
2024-04-21T23:05:59.939Z,102519.88
2024-04-21T23:08:27.209Z,102517.84
2024-04-21T23:11:01.424Z,102507.75
2024-04-21T23:13:29.630Z,102506.34
2024-04-21T23:15:56.824Z,102501.22
2024-04-21T23:18:24.239Z,102510.84
2024-04-21T23:20:51.406Z,102506.53
2024-04-21T23:23:18.604Z,102511.22
2024-04-21T23:25:46.032Z,102515.97
2024-04-21T23:28:13.238Z,102521.53
2024-04-21T23:30:40.428Z,102510.22
2024-04-21T23:33:07.632Z,102519.84
2024-04-21T23:35:34.786Z,102523.75
2024-04-21T23:38:02.161Z,102519.22
2024-04-21T23:40:29.366Z,102525.97
2024-04-21T23:42:56.606Z,102530.66
2024-04-21T23:45:23.770Z,102528.38
2024-04-21T23:47:51.096Z,102519.91
2024-04-21T23:50:18.281Z,102518.53
2024-04-21T23:52:45.461Z,102517.72
2024-04-21T23:55:12.675Z,102514.03
2024-04-21T23:57:39.836Z,102517.53
